Ana Sayfa
METAR-TAF:

METAR-TAF

Havaalanları :

Burlington-Alamance Regional Airport

Burlington, Kuzey Carolina, Amerika Birleşik Devletleri

Enlem: 36-02-52N, Boylam: 079-28-26W, yükseklik: 188 m

Güncel hava durumu gözlemi

Rapor saat 16:54 UTC de 56 dakika önce yapıldı.
Sakin rüzgar
Sıcaklık 7°C
Nem 26%
Basınç 1023 hPa
Görüş mesafesi: 16.1 km
4600 ft yükseklikte parçalı çok bulutlu

METAR: KBUY 071654Z AUTO 00000KT 10SM BKN046 07/M11 A3022 RMK AO2 SLP232 T00721111

Saat: 12:50 (17:50 UTC)


TAF: eksik

4.000'den fazla havaalanı için hava durumu gözlemleri ve tahminleri (METAR ve TAF raporları).

Kullanılabilir istasyonlar harita üzerinde sarı ve kırmızı noktalarla gösterilir.

İstasyonun adını görmek için fareyi noktanın üzerinde gezdirin.

Sonrasında hava gözlem ve tahminlerini görmek için tıklayın.

Haritayı değiştirmek için: yaklaştırmak için siyah artı işaretli yeşil düğmeye ve uzaklaştırmak için de eksi işaretli düğmeye hızla tıklayın; bitişik haritalar için yeşil okları kullanın.


METAR-TAF: